createdAt,value
2023-01-17T00:00:46.385Z,-2.06
2023-01-17T00:06:07.036Z,-2.03
2023-01-17T00:11:10.574Z,-2.18
2023-01-17T00:16:15.436Z,-2.01
2023-01-17T00:21:38.364Z,-1.99
2023-01-17T00:26:55.627Z,-2.13
2023-01-17T00:31:59.190Z,-2.15
2023-01-17T00:37:01.402Z,-2.17
2023-01-17T00:42:03.720Z,-2.11
2023-01-17T00:47:25.897Z,-2.19
2023-01-17T00:52:46.464Z,-2.03
2023-01-17T00:58:07.176Z,-2.05
2023-01-17T01:03:30.629Z,-2.07
2023-01-17T01:08:51.235Z,-2.08
2023-01-17T01:14:13.604Z,-2.05
2023-01-17T01:19:36.081Z,-2.17
2023-01-17T01:24:56.795Z,-1.99
2023-01-17T01:30:17.353Z,-2.04
2023-01-17T01:35:22.534Z,-2.13
2023-01-17T01:40:25.862Z,-2.26
2023-01-17T01:45:31.609Z,-2.29
2023-01-17T01:50:38.224Z,-2.06
2023-01-17T01:55:45.478Z,-2.23
2023-01-17T02:00:49.089Z,-2.24
2023-01-17T02:05:54.083Z,-2.14
2023-01-17T02:10:57.920Z,-2.13
2023-01-17T02:16:06.990Z,-1.88
2023-01-17T02:21:25.379Z,-1.92
2023-01-17T02:26:57.008Z,-2.04
2023-01-17T02:32:07.268Z,-2.09
2023-01-17T02:37:16.085Z,-1.87
2023-01-17T02:42:26.568Z,-1.89
2023-01-17T02:47:33.248Z,-1.70
2023-01-17T02:52:51.066Z,-1.92
2023-01-17T02:58:07.145Z,-1.71
2023-01-17T03:03:20.542Z,-1.56
2023-01-17T03:08:24.998Z,-1.58
2023-01-17T03:13:28.600Z,-1.57
2023-01-17T03:18:33.496Z,-1.73
2023-01-17T03:23:36.871Z,-1.55
2023-01-17T03:28:40.290Z,-1.57
2023-01-17T03:33:45.200Z,-1.50
2023-01-17T03:38:48.694Z,-1.45
2023-01-17T03:43:52.160Z,-1.47
2023-01-17T03:48:56.959Z,-1.40
2023-01-17T03:54:00.132Z,-1.50
2023-01-17T03:59:04.115Z,-1.53
2023-01-17T04:04:09.143Z,-1.39
2023-01-17T04:09:12.582Z,-1.28
2023-01-17T04:14:16.057Z,-1.49
2023-01-17T04:19:20.969Z,-1.41
2023-01-17T04:24:24.532Z,-1.47
2023-01-17T04:29:27.843Z,-1.41
2023-01-17T04:34:32.617Z,-1.52
2023-01-17T04:39:36.118Z,-1.57
2023-01-17T04:44:39.432Z,-1.53
2023-01-17T04:49:44.414Z,-1.61
2023-01-17T04:54:49.556Z,-1.63
2023-01-17T04:59:53.780Z,-1.51
2023-01-17T05:04:58.819Z,-1.52
2023-01-17T05:10:02.121Z,-1.48
2023-01-17T05:15:07.184Z,-1.57
2023-01-17T05:20:13.578Z,-1.30
2023-01-17T05:25:16.956Z,-1.38
2023-01-17T05:30:21.153Z,-1.21
2023-01-17T05:35:29.779Z,-1.26
2023-01-17T05:40:34.641Z,-1.25
2023-01-17T05:45:38.140Z,-1.35
2023-01-17T05:50:42.959Z,-1.18
2023-01-17T05:55:46.242Z,-1.20
2023-01-17T06:00:50.269Z,-1.26
2023-01-17T06:05:55.224Z,-0.96
2023-01-17T06:10:59.846Z,-0.98
2023-01-17T06:16:04.395Z,-1.08
2023-01-17T06:21:09.334Z,-0.99
2023-01-17T06:26:12.500Z,-1.02
2023-01-17T06:31:15.900Z,-0.99
2023-01-17T06:36:20.626Z,-0.80
2023-01-17T06:41:25.989Z,-0.89
2023-01-17T06:46:29.404Z,-0.84
2023-01-17T06:51:34.307Z,-0.68
2023-01-17T06:56:37.709Z,-0.47
2023-01-17T07:01:41.690Z,-0.62
2023-01-17T07:06:46.512Z,-0.72
2023-01-17T07:11:51.936Z,-0.46
2023-01-17T07:16:55.719Z,-0.37
2023-01-17T07:22:00.573Z,-0.33
2023-01-17T07:27:03.744Z,-0.28
2023-01-17T07:32:09.068Z,-0.08
2023-01-17T07:37:15.324Z,-0.08
2023-01-17T07:42:18.841Z,0.04
2023-01-17T07:47:22.435Z,0.26
2023-01-17T07:52:27.353Z,0.12
2023-01-17T07:57:30.550Z,0.12
2023-01-17T08:02:34.028Z,0.41
2023-01-17T08:07:38.922Z,0.55
2023-01-17T08:12:42.132Z,0.06
2023-01-17T08:17:48.795Z,0.33
2023-01-17T08:22:56.836Z,0.19
2023-01-17T08:28:00.573Z,0.41
2023-01-17T08:33:04.147Z,0.39
2023-01-17T08:38:10.151Z,0.32
2023-01-17T08:43:13.604Z,0.39
2023-01-17T08:48:17.277Z,0.31
2023-01-17T08:53:23.511Z,0.40
2023-01-17T08:58:30.465Z,0.44
2023-01-17T09:03:35.291Z,0.42
2023-01-17T09:08:40.823Z,0.42
2023-01-17T09:13:44.728Z,0.47
2023-01-17T09:18:48.203Z,0.51
2023-01-17T09:23:53.212Z,0.62
2023-01-17T09:28:57.171Z,0.76
2023-01-17T09:34:01.101Z,0.82
2023-01-17T09:39:06.277Z,0.63
2023-01-17T09:44:24.847Z,0.88
2023-01-17T09:49:36.747Z,0.82
2023-01-17T09:54:43.995Z,0.66
2023-01-17T10:00:03.237Z,0.86
2023-01-17T10:05:30.019Z,0.70
2023-01-17T10:10:42.514Z,0.84
2023-01-17T10:16:00.899Z,0.97
2023-01-17T10:21:11.128Z,0.90
2023-01-17T10:26:19.964Z,0.86
2023-01-17T10:31:25.894Z,1.03
2023-01-17T10:36:34.732Z,0.97
2023-01-17T10:41:43.769Z,1.05
2023-01-17T10:46:54.281Z,1.21
2023-01-17T10:52:20.413Z,1.00
2023-01-17T10:57:28.392Z,1.15
2023-01-17T11:02:35.609Z,1.22
2023-01-17T11:07:40.162Z,1.26
2023-01-17T11:12:48.355Z,1.36
2023-01-17T11:17:54.348Z,1.20
2023-01-17T11:23:14.119Z,1.36
2023-01-17T11:28:26.111Z,1.56
2023-01-17T11:33:45.346Z,1.50
2023-01-17T11:39:00.239Z,1.51
2023-01-17T11:44:25.044Z,1.58
2023-01-17T11:49:30.883Z,1.63
2023-01-17T11:54:39.814Z,1.45
2023-01-17T11:59:47.943Z,1.61
2023-01-17T12:05:04.136Z,1.56
2023-01-17T12:10:14.764Z,1.63
2023-01-17T12:15:35.345Z,1.75
2023-01-17T12:20:47.169Z,1.57
2023-01-17T12:26:04.532Z,1.67
2023-01-17T12:31:21.844Z,1.90
2023-01-17T12:36:40.268Z,1.65
2023-01-17T12:41:57.570Z,1.86
2023-01-17T12:47:05.050Z,1.69
2023-01-17T12:52:15.172Z,1.87
2023-01-17T12:57:23.299Z,1.96
2023-01-17T13:02:36.564Z,1.80
2023-01-17T13:07:47.543Z,1.92
2023-01-17T13:12:52.201Z,2.01
2023-01-17T13:18:04.561Z,2.03
2023-01-17T13:23:14.008Z,1.89
2023-01-17T13:28:31.525Z,2.07
2023-01-17T13:33:56.627Z,1.96
2023-01-17T13:39:20.447Z,2.04
2023-01-17T13:44:30.161Z,2.03
2023-01-17T13:49:37.400Z,2.00
2023-01-17T13:54:49.185Z,1.90
2023-01-17T13:59:53.109Z,1.96
2023-01-17T14:05:15.335Z,1.95
2023-01-17T14:10:37.947Z,2.10
2023-01-17T14:15:51.011Z,2.14
2023-01-17T14:21:12.876Z,1.95
2023-01-17T14:26:42.679Z,2.12
2023-01-17T14:31:46.813Z,2.19
2023-01-17T14:36:51.581Z,2.13
2023-01-17T14:41:54.984Z,2.14
2023-01-17T14:46:58.365Z,2.01
2023-01-17T14:52:04.792Z,2.13
2023-01-17T14:57:27.016Z,1.84
2023-01-17T15:02:30.558Z,2.05
2023-01-17T15:07:38.197Z,2.23
2023-01-17T15:12:46.698Z,2.03
2023-01-17T15:17:53.811Z,2.02
2023-01-17T15:22:58.653Z,1.94
2023-01-17T15:28:04.741Z,1.79
2023-01-17T15:33:15.130Z,1.91
2023-01-17T15:38:19.963Z,2.06
2023-01-17T15:43:35.995Z,1.83
2023-01-17T15:48:43.526Z,1.89
2023-01-17T15:53:48.403Z,1.98
2023-01-17T15:58:51.577Z,2.01
2023-01-17T16:03:55.721Z,2.10
2023-01-17T16:09:00.616Z,2.41
2023-01-17T16:14:07.635Z,2.26
2023-01-17T16:19:11.331Z,2.40
2023-01-17T16:24:16.840Z,2.31
2023-01-17T16:29:20.148Z,2.20
2023-01-17T16:34:24.090Z,2.10
2023-01-17T16:39:29.551Z,2.19
2023-01-17T16:44:33.611Z,2.03
2023-01-17T16:49:37.118Z,2.09
2023-01-17T16:54:41.987Z,2.22
2023-01-17T16:59:50.867Z,2.18
2023-01-17T17:04:54.568Z,2.05
2023-01-17T17:10:02.576Z,1.99
2023-01-17T17:15:07.956Z,2.03
2023-01-17T17:20:13.772Z,1.95
2023-01-17T17:25:19.421Z,1.77
2023-01-17T17:30:22.790Z,1.86
2023-01-17T17:35:26.289Z,1.78
2023-01-17T17:40:31.137Z,1.96
2023-01-17T17:45:34.456Z,1.69
2023-01-17T17:50:40.287Z,1.81
2023-01-17T17:55:45.153Z,1.55
2023-01-17T18:00:48.378Z,1.40
2023-01-17T18:05:51.828Z,1.42
2023-01-17T18:11:03.585Z,1.37
2023-01-17T18:16:08.921Z,1.40
2023-01-17T18:21:14.271Z,1.27
2023-01-17T18:26:20.994Z,1.38
2023-01-17T18:31:27.700Z,1.26
2023-01-17T18:36:31.174Z,1.21
2023-01-17T18:41:36.130Z,1.28
2023-01-17T18:46:40.411Z,0.96
2023-01-17T18:51:46.794Z,1.13
2023-01-17T18:56:52.773Z,1.37
2023-01-17T19:01:59.048Z,1.43
2023-01-17T19:07:02.577Z,1.31
2023-01-17T19:12:07.747Z,1.01
2023-01-17T19:17:11.048Z,1.12
2023-01-17T19:22:14.600Z,1.09
2023-01-17T19:27:19.509Z,1.29
2023-01-17T19:32:22.679Z,1.11
2023-01-17T19:37:27.173Z,0.98
2023-01-17T19:42:32.025Z,0.94
2023-01-17T19:47:35.483Z,0.60
2023-01-17T19:52:42.413Z,0.62
2023-01-17T19:57:47.253Z,0.63
2023-01-17T20:02:50.293Z,0.62
2023-01-17T20:07:53.791Z,0.69
2023-01-17T20:13:00.401Z,1.04
2023-01-17T20:18:04.103Z,1.02
2023-01-17T20:23:10.530Z,0.85
2023-01-17T20:28:15.247Z,0.91
2023-01-17T20:33:20.730Z,0.95
2023-01-17T20:38:27.545Z,0.92
2023-01-17T20:43:32.385Z,0.99
2023-01-17T20:48:35.786Z,1.12
2023-01-17T20:53:43.598Z,0.84
2023-01-17T20:58:49.584Z,0.78
2023-01-17T21:03:54.900Z,1.03
2023-01-17T21:08:59.930Z,0.95
2023-01-17T21:14:05.844Z,0.62
2023-01-17T21:19:15.865Z,0.87
2023-01-17T21:24:20.371Z,0.89
2023-01-17T21:29:29.607Z,0.71
2023-01-17T21:34:34.812Z,0.98
2023-01-17T21:39:38.800Z,0.81
2023-01-17T21:44:45.479Z,0.86
2023-01-17T21:49:48.822Z,0.86
2023-01-17T21:55:09.606Z,0.94
2023-01-17T22:00:16.121Z,0.95
2023-01-17T22:05:19.757Z,0.65
2023-01-17T22:10:23.337Z,0.56
2023-01-17T22:15:28.088Z,0.86
2023-01-17T22:20:34.196Z,0.96
2023-01-17T22:25:38.031Z,0.80
2023-01-17T22:30:42.905Z,0.58
2023-01-17T22:35:46.035Z,0.73
2023-01-17T22:40:49.323Z,0.51
2023-01-17T22:46:00.263Z,0.57
2023-01-17T22:51:04.857Z,0.57
2023-01-17T22:56:10.184Z,0.54
2023-01-17T23:01:17.418Z,0.41
2023-01-17T23:06:23.033Z,0.65
2023-01-17T23:11:40.850Z,0.70
2023-01-17T23:17:04.755Z,0.74
2023-01-17T23:22:22.379Z,0.77
2023-01-17T23:27:45.307Z,0.67
2023-01-17T23:32:51.665Z,0.51
2023-01-17T23:38:12.308Z,0.30
2023-01-17T23:43:24.683Z,0.42
2023-01-17T23:48:29.947Z,0.54
2023-01-17T23:53:33.389Z,0.40
2023-01-17T23:58:36.824Z,0.60
